createdAt,value
2023-12-09T00:01:11.693Z,33.70
2023-12-09T00:11:14.592Z,33.83
2023-12-09T00:21:19.077Z,36.90
2023-12-09T00:31:21.916Z,32.47
2023-12-09T00:41:25.869Z,31.40
2023-12-09T00:51:28.571Z,30.10
2023-12-09T01:01:34.640Z,30.77
2023-12-09T01:11:37.319Z,29.37
2023-12-09T01:21:41.302Z,32.57
2023-12-09T01:31:43.901Z,36.63
2023-12-09T01:41:47.954Z,41.97
2023-12-09T01:51:50.772Z,35.70
2023-12-09T02:01:55.223Z,28.90
2023-12-09T02:12:07.473Z,31.23
2023-12-09T02:22:11.577Z,35.47
2023-12-09T02:32:18.254Z,32.00
2023-12-09T02:42:21.096Z,47.90
2023-12-09T02:52:25.233Z,40.20
2023-12-09T03:02:28.267Z,31.13
2023-12-09T03:12:32.677Z,36.30
2023-12-09T03:22:35.275Z,31.83
2023-12-09T03:32:41.253Z,29.97
2023-12-09T03:42:43.875Z,30.17
2023-12-09T03:52:47.865Z,31.07
2023-12-09T04:02:50.474Z,30.37
2023-12-09T04:12:54.385Z,29.67
2023-12-09T04:22:56.989Z,31.87
2023-12-09T04:33:01.228Z,32.83
2023-12-09T04:43:04.855Z,36.10
2023-12-09T04:53:08.900Z,35.17
2023-12-09T05:03:11.925Z,35.03
2023-12-09T05:13:15.919Z,34.83
2023-12-09T05:23:18.478Z,33.27
2023-12-09T05:33:22.552Z,43.63
2023-12-09T05:43:25.284Z,33.97
2023-12-09T05:53:29.317Z,30.57
2023-12-09T06:03:32.041Z,34.57
2023-12-09T06:13:36.031Z,29.97
2023-12-09T06:23:39.124Z,32.63
2023-12-09T06:33:43.186Z,30.53
2023-12-09T06:43:45.909Z,27.80
2023-12-09T06:53:49.807Z,27.73
2023-12-09T07:03:55.828Z,25.50
2023-12-09T07:13:59.786Z,26.63
2023-12-09T07:24:02.442Z,25.13
2023-12-09T07:34:06.589Z,25.80
2023-12-09T07:44:09.258Z,25.67
2023-12-09T07:54:13.169Z,24.20
2023-12-09T08:04:16.029Z,22.97
2023-12-09T08:14:19.997Z,22.30
2023-12-09T08:24:22.876Z,23.20
2023-12-09T08:34:26.893Z,26.87
2023-12-09T08:44:29.585Z,23.27
2023-12-09T08:54:33.560Z,23.13
2023-12-09T09:04:36.165Z,21.07
2023-12-09T09:14:40.143Z,19.83
2023-12-09T09:24:42.866Z,21.57
2023-12-09T09:34:47.031Z,25.90
2023-12-09T09:44:58.135Z,16.87
2023-12-09T09:55:03.671Z,13.90
2023-12-09T10:05:06.642Z,45.90
2023-12-09T10:15:12.239Z,14.53
2023-12-09T10:25:22.190Z,13.47
2023-12-09T10:35:26.113Z,11.57
2023-12-09T10:45:30.417Z,11.10
2023-12-09T10:55:34.521Z,10.90
2023-12-09T11:05:45.433Z,12.23
2023-12-09T11:15:49.471Z,9.60
2023-12-09T11:25:52.267Z,8.70
2023-12-09T11:35:58.219Z,7.37
2023-12-09T11:46:00.811Z,6.37
2023-12-09T11:56:06.268Z,5.83
2023-12-09T12:06:09.432Z,3.83
2023-12-09T12:16:14.215Z,3.40
2023-12-09T12:26:16.806Z,3.03
2023-12-09T12:36:20.867Z,2.87
2023-12-09T12:46:23.533Z,2.60
2023-12-09T12:56:28.056Z,2.93
2023-12-09T13:06:30.852Z,3.00
2023-12-09T13:16:34.962Z,8.23
2023-12-09T13:26:45.433Z,3.00
2023-12-09T13:36:48.122Z,2.60
2023-12-09T13:46:52.175Z,3.03
2023-12-09T13:56:54.773Z,2.20
2023-12-09T14:06:58.693Z,2.30
2023-12-09T14:17:01.818Z,2.13
2023-12-09T14:27:06.214Z,2.83
2023-12-09T14:37:08.889Z,2.67
2023-12-09T14:47:14.241Z,2.53
2023-12-09T14:57:16.865Z,2.63
2023-12-09T15:07:20.893Z,3.20
2023-12-09T15:17:23.796Z,3.37
2023-12-09T15:27:29.163Z,3.73
2023-12-09T15:37:31.856Z,3.80
2023-12-09T15:47:35.855Z,3.37
2023-12-09T15:57:38.663Z,3.97
2023-12-09T16:07:44.196Z,3.10
2023-12-09T16:17:48.145Z,3.70
2023-12-09T16:27:52.337Z,4.50
2023-12-09T16:37:55.311Z,4.17
2023-12-09T16:47:59.305Z,3.77
2023-12-09T16:58:02.068Z,4.20
2023-12-09T17:08:06.489Z,5.07
2023-12-09T17:18:10.374Z,5.13
2023-12-09T17:28:14.477Z,4.50
2023-12-09T17:38:17.087Z,12.87
2023-12-09T17:48:21.754Z,5.77
2023-12-09T17:58:24.474Z,5.27
2023-12-09T18:08:29.552Z,6.17
2023-12-09T18:18:32.347Z,5.33
2023-12-09T18:28:38.604Z,5.23
2023-12-09T18:38:41.246Z,5.40
2023-12-09T18:48:45.680Z,4.83
2023-12-09T18:58:49.085Z,6.57
2023-12-09T19:08:53.049Z,5.33
2023-12-09T19:18:55.706Z,6.37
2023-12-09T19:29:02.401Z,7.77
2023-12-09T19:39:05.781Z,5.40
2023-12-09T19:49:09.906Z,4.73
2023-12-09T19:59:12.695Z,4.40
2023-12-09T20:09:16.771Z,4.43
2023-12-09T20:19:20.948Z,5.33
2023-12-09T20:29:25.963Z,4.80
2023-12-09T20:39:28.629Z,90.20
2023-12-09T20:49:32.600Z,13.87
2023-12-09T20:59:35.190Z,8.67
2023-12-09T21:09:40.323Z,7.40
2023-12-09T21:19:44.149Z,9.30
2023-12-09T21:29:48.095Z,11.63
2023-12-09T21:39:51.047Z,9.67
2023-12-09T21:49:55.597Z,7.37
2023-12-09T21:59:58.222Z,8.33
2023-12-09T22:10:02.110Z,8.33
2023-12-09T22:20:05.776Z,6.33
2023-12-09T22:30:11.054Z,6.57
2023-12-09T22:40:14.631Z,4.60
2023-12-09T22:50:18.842Z,9.00
2023-12-09T23:00:33.126Z,6.13
2023-12-09T23:10:37.330Z,5.70
2023-12-09T23:20:39.910Z,4.73
2023-12-09T23:30:43.869Z,12.83
2023-12-09T23:40:46.490Z,9.43
2023-12-09T23:50:50.461Z,11.37
